Hovedside
METAR-TAF:

METAR-TAF

Lufthavner :

Port-Gentil, Gabon

breddegrad: 00-42S, lengdegrad: 008-45E, høyde over havet: 3 m

Gjeldene værobservasjon

Denne rapporten ble laget for 42 minutter siden, klokken 21:00 UTC
Vind 8 kt fra Sør-sørvest
Temperatur 24°C
Luftfuktighet 89%
Trykk 1012 hPa
Sikt 10 km eller mer
Få skyer i en høyde av 900 ft

METAR: FOOG 252100Z 20008KT 9999 FEW009 24/22 Q1012

Tid: 22:42 (21:42 UTC)

Varsel

Denne rapporten ble laget for 4 timer og 42 minutter siden, klokken 17:00 UTC
Varsel gyldig fra 25. klokken 18 UTC til 26. klokken 18 UTC
Vind 10 kt fra Sørvest
Sikt: 9000 m
Spredte skyer i en høyde av 1000 ft
Brutte skyer i en høyde av 2600 ft

TAF: FOOG 251700Z 2518/2618 22010KT 9000 SCT010 BKN026

Værobservasjoner og værvarsel for over 4000 flyplasser (METAR- og TAF-rapporter).

Tilgjengelige stasjoner er representert av de røde og gule prikkene på kartet.

Hold musepekeren over prikken for å se navnet på stasjonen.

Klikk så for å se værobservasjoner og -varsler.

For å forandre kartet kan du klikke på den grønne knappen med svart kryss for å zoome inn, på den grønne knappen med strek for å zoome ut, eller på de grønne pilene for å se tilstøtende kart.


METAR-TAF: